Time;durP1;ratioP1;P1;durP2;ratioP2;P2;SDS_P1;SDS_P2;PMS_P1;PMS_P2;Temp;Humidity;BMP_temperature;BMP_pressure;BME280_temperature;BME280_humidity;BME280_pressure;Samples;Min_cycle;Max_cycle;Signal;HPM_P1;HPM_P2
2021/11/16 00:01:38;;;;;;;18.60;12.20;;;;;;;8.46;95.28;101791.06;5010607;28;20022;-74
2021/11/16 00:04:05;;;;;;;18.35;12.20;;;;;;;8.51;95.69;101789.72;5010252;28;20029;-74
2021/11/16 00:06:30;;;;;;;18.92;12.77;;;;;;;8.51;95.29;101788.06;5025882;28;20116;-74
2021/11/16 00:08:55;;;;;;;22.17;13.80;;;;;;;8.54;94.73;101788.25;5030029;28;20504;-73
2021/11/16 00:11:21;;;;;;;16.23;12.15;;;;;;;7.71;94.54;101666.91;5031067;28;20029;-74
2021/11/16 00:13:49;;;;;;;18.52;13.00;;;;;;;8.23;94.72;101783.59;5032834;28;20553;-72
2021/11/16 00:16:14;;;;;;;21.30;13.02;;;;;;;8.19;95.28;101762.72;5031177;28;20029;-74
2021/11/16 00:18:40;;;;;;;19.55;13.07;;;;;;;8.34;94.89;101773.16;5034351;28;20033;-74
2021/11/16 00:21:07;;;;;;;20.20;12.85;;;;;;;8.10;95.44;101758.72;5034132;28;20036;-74
2021/11/16 00:23:35;;;;;;;20.63;12.82;;;;;;;8.31;96.14;101786.69;5034879;28;20029;-71
2021/11/16 00:26:06;;;;;;;17.25;12.32;;;;;;;8.25;95.71;101779.44;5034650;28;20048;-72
2021/11/16 00:28:33;;;;;;;17.30;11.80;;;;;;;8.22;95.65;101774.09;5034529;28;20049;-72
2021/11/16 00:30:59;;;;;;;17.35;12.20;;;;;;;8.25;96.02;101771.72;5034591;28;20581;-75
2021/11/16 00:33:27;;;;;;;18.52;11.00;;;;;;;8.40;95.79;101795.03;5034445;28;20079;-73
2021/11/16 00:35:53;;;;;;;21.00;11.75;;;;;;;8.29;95.41;101779.63;5033587;28;20065;-70
2021/11/16 00:38:20;;;;;;;16.48;10.80;;;;;;;8.25;95.32;101760.56;5034096;28;20029;-71
2021/11/16 00:40:47;;;;;;;20.08;11.63;;;;;;;8.29;95.41;101774.50;5034064;28;20033;-73
2021/11/16 00:43:13;;;;;;;21.15;12.30;;;;;;;8.34;95.42;101770.56;5033851;28;20034;-74
2021/11/16 00:45:43;;;;;;;17.52;11.00;;;;;;;8.19;95.92;101755.00;5034011;28;20501;-73
2021/11/16 00:48:09;;;;;;;19.17;11.25;;;;;;;8.22;95.71;101766.38;5033552;28;20123;-70
2021/11/16 00:50:38;;;;;;;19.23;10.75;;;;;;;8.29;95.86;101770.25;5034194;28;20037;-72
2021/11/16 00:53:04;;;;;;;19.83;11.30;;;;;;;8.23;96.01;101765.56;5033838;28;20404;-72
2021/11/16 00:55:30;;;;;;;18.25;11.25;;;;;;;7.93;96.27;101713.84;5034240;28;20033;-73
2021/11/16 00:57:55;;;;;;;20.02;10.05;;;;;;;8.14;96.38;101757.25;5033510;28;20025;-72
2021/11/16 01:00:21;;;;;;;19.08;11.07;;;;;;;8.29;96.41;101772.84;5033716;28;20044;-73
2021/11/16 01:02:46;;;;;;;18.05;10.55;;;;;;;8.09;96.31;101730.34;5033383;28;20025;-76
2021/11/16 01:05:14;;;;;;;22.35;10.00;;;;;;;8.48;95.68;101771.53;5033872;28;20416;-74
2021/11/16 01:07:42;;;;;;;20.77;10.48;;;;;;;8.50;95.91;101770.84;5033200;28;20029;-72
2021/11/16 01:10:13;;;;;;;18.98;9.25;;;;;;;8.48;95.75;101762.09;5033530;28;20044;-75
2021/11/16 01:12:40;;;;;;;24.02;9.63;;;;;;;8.44;95.96;101760.09;5033605;28;20034;-75
2021/11/16 01:15:08;;;;;;;37.38;10.38;;;;;;;8.41;95.77;101759.88;5033370;28;20476;-71
2021/11/16 01:17:34;;;;;;;27.10;10.00;;;;;;;8.26;96.11;101772.59;5032131;28;20068;-72
2021/11/16 01:20:00;;;;;;;26.20;10.65;;;;;;;7.97;96.95;101698.66;5033597;28;20064;-74
2021/11/16 01:22:26;;;;;;;25.33;9.85;;;;;;;7.73;96.99;101655.94;5033445;28;20045;-71
2021/11/16 01:24:52;;;;;;;24.60;9.73;;;;;;;8.26;96.97;101728.88;5033648;28;20025;-77
2021/11/16 01:27:19;;;;;;;32.13;9.88;;;;;;;8.29;96.23;101733.31;5033012;28;20029;-72
2021/11/16 01:29:50;;;;;;;35.80;10.93;;;;;;;8.53;96.21;101755.56;5033160;28;20057;-78
2021/11/16 01:35:12;;;;;;;19.45;8.27;;;;;;;8.68;94.32;101759.97;5011041;28;20048;-74
2021/11/16 01:37:38;;;;;;;28.83;9.88;;;;;;;8.68;94.88;101747.97;5011058;28;20128;-74
2021/11/16 01:40:15;;;;;;;19.17;8.50;;;;;;;8.81;95.24;101759.06;5010974;28;20050;-71
2021/11/16 01:42:41;;;;;;;20.45;9.00;;;;;;;8.61;95.37;101724.31;5010764;28;20037;-73
2021/11/16 01:45:07;;;;;;;21.02;8.65;;;;;;;8.64;95.76;101748.56;4971730;28;20046;-72
2021/11/16 01:47:33;;;;;;;24.55;8.77;;;;;;;8.64;95.28;101752.84;4971609;28;20043;-74
2021/11/16 01:49:58;;;;;;;37.50;10.52;;;;;;;8.57;95.25;101747.28;4971808;28;20513;-73
2021/11/16 01:52:24;;;;;;;25.23;9.05;;;;;;;8.23;95.45;101706.41;4987693;28;20398;-71
2021/11/16 01:54:50;;;;;;;12.95;7.55;;;;;;;8.28;95.62;101736.72;4971192;28;20437;-72
2021/11/16 01:57:16;;;;;;;10.13;6.55;;;;;;;8.14;96.43;101718.66;4971605;28;20129;-72
2021/11/16 01:59:42;;;;;;;17.17;7.80;;;;;;;8.20;97.03;101742.22;4971455;28;20129;-69
2021/11/16 02:02:08;;;;;;;17.85;8.02;;;;;;;8.13;97.59;101729.75;4971724;28;20047;-71
2021/11/16 02:04:34;;;;;;;13.32;7.00;;;;;;;8.06;97.29;101713.03;4971235;28;20046;-73
2021/11/16 02:06:59;;;;;;;14.30;7.57;;;;;;;7.83;97.51;101664.28;4971570;28;20171;-73
2021/11/16 02:09:25;;;;;;;24.42;8.20;;;;;;;8.21;97.28;101744.03;4971494;28;20489;-73
2021/11/16 02:11:50;;;;;;;13.95;6.97;;;;;;;8.12;97.83;101751.09;4983555;28;20115;-71
2021/11/16 02:14:17;;;;;;;15.48;7.40;;;;;;;8.04;98.04;101744.56;4990791;28;20026;-71
2021/11/16 02:16:45;;;;;;;12.93;7.32;;;;;;;8.01;97.60;101734.97;4990810;28;20030;-72
2021/11/16 02:19:18;;;;;;;16.73;6.65;;;;;;;8.09;97.26;101753.47;4990636;28;20030;-70
2021/11/16 02:21:43;;;;;;;14.45;6.82;;;;;;;7.86;97.11;101708.19;4997409;28;20048;-71
2021/11/16 02:24:09;;;;;;;12.80;6.43;;;;;;;7.40;96.80;101619.47;5031960;28;20033;-72
2021/11/16 02:26:36;;;;;;;16.52;6.85;;;;;;;8.01;97.41;101726.34;5032506;28;20029;-71
2021/11/16 02:29:03;;;;;;;11.70;6.78;;;;;;;8.02;97.24;101722.97;5032597;28;20033;-71
2021/11/16 02:31:28;;;;;;;15.23;7.53;;;;;;;8.11;97.25;101733.88;5031728;28;20049;-69
2021/11/16 02:33:54;;;;;;;14.38;7.78;;;;;;;8.09;96.96;101738.06;5031520;28;20075;-69
2021/11/16 02:36:20;;;;;;;13.50;7.70;;;;;;;7.96;96.30;101697.72;5032347;28;20060;-73
2021/11/16 02:38:47;;;;;;;14.73;7.18;;;;;;;8.12;97.17;101735.66;5031668;28;20048;-76
2021/11/16 02:41:13;;;;;;;12.30;6.72;;;;;;;7.78;97.18;101669.13;5031857;28;20483;-69
2021/11/16 02:43:40;;;;;;;15.13;6.70;;;;;;;8.08;96.62;101729.41;5031765;28;20025;-70
2021/11/16 02:46:06;;;;;;;14.73;6.55;;;;;;;8.21;97.19;101735.41;5032042;28;20087;-68
2021/11/16 02:48:34;;;;;;;15.50;8.10;;;;;;;8.25;97.14;101733.13;5031774;28;20446;-68
2021/11/16 02:51:03;;;;;;;44.70;13.57;;;;;;;8.28;95.82;101731.56;5031789;28;20029;-71
2021/11/16 02:53:29;;;;;;;30.10;10.90;;;;;;;8.38;94.07;101736.53;5031686;28;20038;-69
2021/11/16 02:55:55;;;;;;;41.75;13.80;;;;;;;8.23;94.71;101702.94;5031830;28;20260;-69
2021/11/16 02:58:23;;;;;;;33.58;10.18;;;;;;;7.78;94.80;101622.84;5022572;28;20109;-69
2021/11/16 03:00:54;;;;;;;26.80;9.60;;;;;;;8.49;94.70;101737.28;5011940;28;20030;-68
2021/11/16 03:03:21;;;;;;;38.67;11.43;;;;;;;8.47;94.24;101733.69;5010728;28;20029;-71
2021/11/16 03:05:47;;;;;;;48.50;14.07;;;;;;;8.49;93.90;101733.00;5011623;28;20029;-68
2021/11/16 03:08:21;;;;;;;60.03;16.35;;;;;;;8.43;94.46;101720.59;5025579;28;20557;-70
2021/11/16 03:10:50;;;;;;;47.83;15.10;;;;;;;8.52;94.75;101733.22;5010887;28;20032;-70
2021/11/16 03:13:15;;;;;;;38.50;12.77;;;;;;;8.39;94.93;101705.75;5010804;28;20029;-73
2021/11/16 03:15:41;;;;;;;49.92;15.27;;;;;;;8.48;95.23;101715.78;5011314;28;20025;-70
2021/11/16 03:18:08;;;;;;;49.35;16.23;;;;;;;8.61;95.81;101726.88;5010696;28;20088;-70
2021/11/16 03:20:34;;;;;;;32.65;14.63;;;;;;;8.56;96.31;101713.69;5010806;28;20033;-72
2021/11/16 03:23:13;;;;;;;55.42;15.45;;;;;;;8.53;96.73;101731.53;5011003;28;20018;-69
2021/11/16 03:25:46;;;;;;;18.73;10.65;;;;;;;8.36;96.97;101692.69;5010502;28;20491;-71
2021/11/16 03:28:12;;;;;;;22.13;10.32;;;;;;;8.38;97.56;101724.53;5009232;28;20038;-68
2021/11/16 03:30:39;;;;;;;29.75;12.60;;;;;;;7.91;97.03;101642.53;5010096;28;20056;-70
2021/11/16 03:33:05;;;;;;;24.67;11.82;;;;;;;8.38;97.42;101716.81;5011945;28;20034;-70
2021/11/16 03:35:32;;;;;;;21.65;10.80;;;;;;;8.33;97.30;101715.63;5014627;28;20042;-71
2021/11/16 03:37:59;;;;;;;20.50;10.73;;;;;;;7.92;98.20;101645.25;5010797;28;20087;-69
2021/11/16 03:40:27;;;;;;;20.52;10.65;;;;;;;8.27;98.32;101717.78;5010624;28;20123;-70
2021/11/16 03:42:53;;;;;;;22.75;11.18;;;;;;;8.28;98.32;101711.88;5010229;28;20113;-70
2021/11/16 03:45:22;;;;;;;18.77;10.32;;;;;;;8.18;98.35;101697.50;5010698;28;20101;-69
2021/11/16 03:47:48;;;;;;;17.40;10.38;;;;;;;8.23;98.18;101714.13;5014972;28;20018;-71
2021/11/16 03:50:20;;;;;;;20.38;10.50;;;;;;;8.21;98.31;101714.81;5014482;28;20542;-71
2021/11/16 03:52:52;;;;;;;18.42;10.65;;;;;;;8.22;98.87;101708.88;5014473;28;20128;-71
2021/11/16 03:55:18;;;;;;;21.42;10.70;;;;;;;8.05;98.19;101677.78;5015249;28;20064;-69
2021/11/16 03:57:44;;;;;;;19.48;9.80;;;;;;;8.06;98.47;101689.88;5015128;28;20112;-69
2021/11/16 04:00:17;;;;;;;19.08;10.35;;;;;;;8.22;98.24;101726.88;5015162;28;20480;-69
2021/11/16 04:02:42;;;;;;;19.05;10.88;;;;;;;8.22;98.32;101712.38;5013187;28;20025;-68
2021/11/16 04:05:08;;;;;;;19.08;10.20;;;;;;;8.11;98.41;101697.88;5014010;28;20037;-71
2021/11/16 04:07:34;;;;;;;19.63;9.95;;;;;;;7.69;97.84;101610.28;5014429;28;20519;-70
2021/11/16 04:10:00;;;;;;;20.48;10.77;;;;;;;8.15;97.53;101692.16;5014086;28;20021;-72
2021/11/16 04:12:26;;;;;;;17.50;10.40;;;;;;;8.10;97.60;101671.28;5029024;28;20443;-71
2021/11/16 04:14:52;;;;;;;19.13;10.18;;;;;;;8.22;97.16;101681.50;5014663;28;20411;-72
2021/11/16 04:17:17;;;;;;;20.45;10.65;;;;;;;8.36;97.31;101718.41;5015460;28;20025;-73
2021/11/16 04:19:43;;;;;;;19.60;10.68;;;;;;;8.25;97.30;101683.38;5033816;28;20494;-69
2021/11/16 04:22:09;;;;;;;20.52;11.13;;;;;;;7.87;96.36;101612.28;5034539;28;20091;-69
2021/11/16 04:24:35;;;;;;;26.67;12.10;;;;;;;8.43;96.54;101701.69;5015482;28;20057;-70
2021/11/16 04:27:02;;;;;;;17.70;10.90;;;;;;;8.46;96.63;101714.81;5014521;28;20169;-71
2021/11/16 04:29:28;;;;;;;24.55;11.10;;;;;;;8.37;95.92;101693.56;5014497;28;20120;-70
2021/11/16 04:31:53;;;;;;;32.53;12.77;;;;;;;8.49;96.00;101706.41;5014844;28;20527;-69
2021/11/16 04:34:19;;;;;;;45.88;14.52;;;;;;;8.58;96.85;101710.47;5014403;28;20033;-69
2021/11/16 04:36:44;;;;;;;40.92;12.98;;;;;;;8.64;96.72;101714.22;5014491;28;20053;-68
2021/11/16 04:39:10;;;;;;;38.70;13.15;;;;;;;8.51;96.72;101702.22;5014201;28;20036;-69
2021/11/16 04:41:37;;;;;;;38.78;13.45;;;;;;;8.46;97.17;101696.78;5013564;28;20407;-69
2021/11/16 04:44:05;;;;;;;31.85;11.85;;;;;;;8.26;96.55;101641.41;5014257;28;20077;-68
2021/11/16 04:46:31;;;;;;;30.75;12.75;;;;;;;8.63;95.89;101705.59;5014480;28;20092;-68
2021/11/16 05:04:39;;;;;;;20.88;10.98;;;;;;;8.54;96.47;101726.47;5011116;28;20049;-67
2021/11/16 05:07:16;;;;;;;16.63;10.57;;;;;;;8.46;97.79;101737.03;5011533;28;20486;-71
2021/11/16 05:09:49;;;;;;;18.80;11.57;;;;;;;8.33;99.41;101745.63;5011408;28;20038;-71
2021/11/16 05:12:16;;;;;;;19.98;12.95;;;;;;;7.77;100.00;101660.50;5011543;28;20034;-74
2021/11/16 05:14:41;;;;;;;18.20;12.43;;;;;;;8.15;100.00;101742.69;5011048;28;20049;-70
2021/11/16 05:17:07;;;;;;;25.00;14.98;;;;;;;8.12;100.00;101751.09;5026314;28;20045;-69
2021/11/16 05:19:32;;;;;;;29.83;16.95;;;;;;;7.34;100.00;101620.72;5031036;28;20034;-70
2021/11/16 05:21:58;;;;;;;24.98;15.20;;;;;;;8.03;100.00;101750.50;5029451;28;20132;-73
2021/11/16 05:24:25;;;;;;;25.55;15.98;;;;;;;7.75;100.00;101718.66;5030093;28;20021;-71
2021/11/16 05:26:51;;;;;;;24.63;15.18;;;;;;;7.78;100.00;101741.97;5029957;28;20027;-70
2021/11/16 05:29:17;;;;;;;25.15;13.95;;;;;;;7.19;100.00;101647.16;5029707;28;20120;-70
2021/11/16 05:31:43;;;;;;;27.40;17.02;;;;;;;7.67;100.00;101752.31;5014049;28;20088;-68
2021/11/16 05:34:09;;;;;;;25.95;15.02;;;;;;;7.58;100.00;101738.03;5030583;28;20080;-71
2021/11/16 05:36:34;;;;;;;23.92;17.15;;;;;;;7.84;100.00;101762.09;5030588;28;20096;-70
2021/11/16 05:39:00;;;;;;;25.05;17.30;;;;;;;7.32;100.00;101689.97;5030475;28;20484;-75
2021/11/16 05:41:25;;;;;;;25.58;16.83;;;;;;;7.75;100.00;101757.22;5011041;28;20073;-71
2021/11/16 05:43:51;;;;;;;23.13;16.05;;;;;;;7.56;100.00;101725.88;5012770;28;20029;-71
2021/11/16 05:46:21;;;;;;;23.70;16.10;;;;;;;7.85;100.00;101760.41;5012487;28;20083;-73
2021/11/16 05:48:48;;;;;;;25.20;17.23;;;;;;;7.88;100.00;101740.94;5018618;28;20075;-72
2021/11/16 05:51:15;;;;;;;26.92;17.02;;;;;;;7.84;100.00;101732.91;5032221;28;20032;-75
2021/11/16 05:53:44;;;;;;;24.85;16.02;;;;;;;7.98;100.00;101744.16;5031947;28;20072;-74
2021/11/16 05:56:12;;;;;;;24.75;16.80;;;;;;;8.22;100.00;101752.63;5029830;28;20083;-76
2021/11/16 05:58:41;;;;;;;32.00;17.83;;;;;;;8.41;100.00;101747.00;5021402;28;20033;-75
2021/11/16 06:01:07;;;;;;;28.23;17.15;;;;;;;8.44;100.00;101744.66;5029790;28;20042;-76
2021/11/16 06:03:32;;;;;;;24.35;16.83;;;;;;;8.50;100.00;101757.06;5019954;28;20037;-74
2021/11/16 06:05:58;;;;;;;23.70;16.25;;;;;;;8.56;100.00;101763.50;5011251;28;20056;-74
2021/11/16 06:08:27;;;;;;;21.63;15.20;;;;;;;8.58;100.00;101754.22;5011317;28;20028;-75
2021/11/16 06:10:54;;;;;;;26.35;15.52;;;;;;;8.68;100.00;101765.97;5011249;28;20075;-78
2021/11/16 06:13:21;;;;;;;27.42;16.55;;;;;;;8.69;100.00;101767.78;5010976;28;20419;-75
2021/11/16 06:15:47;;;;;;;27.38;15.43;;;;;;;8.69;100.00;101772.03;5022792;28;20086;-75
2021/11/16 06:18:13;;;;;;;24.05;15.60;;;;;;;8.73;100.00;101769.78;5026053;28;20164;-76
2021/11/16 06:20:40;;;;;;;31.45;15.32;;;;;;;8.71;100.00;101755.91;5025606;28;20030;-77
2021/11/16 06:23:06;;;;;;;36.67;17.17;;;;;;;8.81;100.00;101769.38;5031073;28;20474;-76
2021/11/16 06:25:32;;;;;;;30.48;15.77;;;;;;;8.37;100.00;101693.56;5031322;28;20060;-76
2021/11/16 06:27:57;;;;;;;22.55;15.35;;;;;;;8.82;100.00;101786.59;5029448;28;20505;-76
2021/11/16 06:30:23;;;;;;;22.67;15.43;;;;;;;8.84;100.00;101779.88;5031710;28;20053;-77
2021/11/16 06:32:48;;;;;;;27.98;16.05;;;;;;;8.80;100.00;101781.34;5031309;28;20453;-76
2021/11/16 06:35:16;;;;;;;29.20;16.15;;;;;;;8.61;100.00;101747.47;5027647;28;20038;-77
2021/11/16 06:37:42;;;;;;;31.13;16.10;;;;;;;8.25;100.00;101685.94;5027336;28;20046;-77
2021/11/16 06:40:07;;;;;;;31.65;15.57;;;;;;;8.73;100.00;101782.66;5031816;28;20033;-74
2021/11/16 06:42:33;;;;;;;36.63;16.73;;;;;;;8.60;100.00;101755.97;5031783;28;20533;-76
2021/11/16 06:44:58;;;;;;;23.95;15.52;;;;;;;8.24;100.00;101687.63;5031529;28;20061;-78
2021/11/16 06:47:24;;;;;;;28.27;16.35;;;;;;;8.57;100.00;101765.31;5032098;28;20029;-75
2021/11/16 06:49:51;;;;;;;24.25;16.08;;;;;;;8.71;100.00;101794.53;5031755;28;20468;-74
2021/11/16 06:52:17;;;;;;;23.23;16.75;;;;;;;8.70;100.00;101789.28;5031649;28;20083;-76
2021/11/16 06:54:43;;;;;;;26.60;16.92;;;;;;;8.64;100.00;101794.03;5031522;28;20555;-75
2021/11/16 06:57:08;;;;;;;23.52;15.93;;;;;;;8.66;100.00;101797.56;5031873;28;20041;-76
2021/11/16 06:59:34;;;;;;;24.00;16.23;;;;;;;8.64;100.00;101794.91;5031563;28;20494;-75
2021/11/16 07:01:59;;;;;;;24.10;18.38;;;;;;;8.71;100.00;101785.88;5031883;28;20030;-76
2021/11/16 07:04:35;;;;;;;27.00;17.55;;;;;;;8.22;100.00;101701.16;5031561;28;20488;-75
2021/11/16 07:10:15;;;;;;;27.50;18.55;;;;;;;8.69;100.00;101793.53;5142034;22;20062;-77
2021/11/16 07:12:43;;;;;;;24.38;17.42;;;;;;;8.46;100.00;101758.56;5010711;28;20044;-77
2021/11/16 07:15:09;;;;;;;27.77;17.35;;;;;;;8.55;100.00;101789.16;5012178;28;20080;-75
2021/11/16 07:17:36;;;;;;;25.33;18.60;;;;;;;8.18;100.00;101718.06;5012018;28;20029;-77
2021/11/16 07:20:04;;;;;;;24.10;17.00;;;;;;;8.73;100.00;101786.88;5009391;28;20104;-76
2021/11/16 07:22:31;;;;;;;29.98;18.80;;;;;;;8.82;100.00;101784.03;5012037;28;20030;-74
2021/11/16 07:25:08;;;;;;;30.95;18.73;;;;;;;8.43;100.00;101699.13;5011845;28;20026;-77
2021/11/16 07:27:46;;;;;;;40.65;18.50;;;;;;;9.01;100.00;101786.09;5012175;28;20033;-74
2021/11/16 07:30:18;;;;;;;27.42;17.98;;;;;;;9.06;100.00;101785.63;5011343;28;20483;-74
2021/11/16 07:33:00;;;;;;;22.45;16.08;;;;;;;8.97;100.00;101769.59;5011715;28;20523;-74
2021/11/16 07:35:29;;;;;;;22.95;15.82;;;;;;;8.87;100.00;101783.56;5011999;28;20055;-74
2021/11/16 07:37:58;;;;;;;23.77;14.98;;;;;;;8.45;100.00;101700.13;5011779;28;20112;-75
2021/11/16 07:40:24;;;;;;;25.85;18.65;;;;;;;9.05;100.00;101780.38;5011936;28;20451;-74
2021/11/16 07:42:52;;;;;;;23.23;15.38;;;;;;;9.00;100.00;101769.75;5010494;28;20426;-75
2021/11/16 07:45:23;;;;;;;24.58;18.75;;;;;;;9.07;100.00;101776.19;5011983;28;20057;-76
2021/11/16 07:48:02;;;;;;;24.60;15.52;;;;;;;8.88;100.00;101728.69;5011885;28;20064;-74
2021/11/16 07:50:30;;;;;;;27.83;18.73;;;;;;;8.66;100.00;101671.44;5011774;28;20057;-75
2021/11/16 07:53:37;;;;;;;27.15;18.90;;;;;;;9.16;100.00;101779.38;5011641;28;20056;-75
2021/11/16 07:56:06;;;;;;;28.17;19.13;;;;;;;9.17;100.00;101786.31;4970484;28;20496;-74
2021/11/16 07:58:35;;;;;;;27.90;17.02;;;;;;;9.17;100.00;101773.44;4970401;28;20034;-76
2021/11/16 08:01:07;;;;;;;28.40;16.55;;;;;;;8.75;100.00;101679.75;4968111;28;20077;-75
2021/11/16 08:03:42;;;;;;;34.92;18.50;;;;;;;9.43;100.00;101776.75;4950925;28;20118;-75
2021/11/16 08:08:54;;;;;;;37.35;20.88;;;;;;;9.52;100.00;101774.75;4950744;29;20106;-75
2021/11/16 08:14:06;;;;;;;50.03;21.10;;;;;;;9.96;100.00;101765.38;4951123;29;20039;-77
2021/11/16 08:16:48;;;;;;;47.35;17.95;;;;;;;9.79;100.00;101729.94;4951063;29;20086;-76
2021/11/16 08:19:14;;;;;;;55.83;19.83;;;;;;;10.13;100.00;101760.31;4950841;28;20035;-75
2021/11/16 08:21:44;;;;;;;44.55;19.17;;;;;;;10.30;100.00;101769.06;4944498;29;20067;-76
2021/11/16 08:24:14;;;;;;;32.65;19.20;;;;;;;10.25;99.82;101761.06;4939126;28;20569;-74
2021/11/16 08:26:43;;;;;;;33.63;17.17;;;;;;;9.43;99.64;101596.31;4931161;29;20031;-73
2021/11/16 08:29:11;;;;;;;38.47;17.27;;;;;;;10.45;99.69;101767.41;4933856;28;20497;-74
2021/11/16 08:31:45;;;;;;;40.97;15.90;;;;;;;10.31;97.63;101742.47;4951470;28;20043;-74
2021/11/16 08:34:11;;;;;;;47.35;16.48;;;;;;;10.07;97.56;101704.09;5014538;28;20105;-76
2021/11/16 08:36:52;;;;;;;46.25;17.65;;;;;;;10.41;98.15;101742.22;5014662;28;20060;-73
2021/11/16 08:39:20;;;;;;;46.28;18.23;;;;;;;10.11;98.26;101679.38;5014210;28;20527;-73
2021/11/16 08:41:48;;;;;;;39.88;18.42;;;;;;;10.68;97.58;101760.13;4997159;28;20030;-77
2021/11/16 08:44:21;;;;;;;56.05;19.45;;;;;;;10.79;97.14;101771.97;5014360;28;20488;-77
2021/11/16 08:46:50;;;;;;;28.27;14.10;;;;;;;10.86;96.33;101761.97;5046153;28;20069;-75
2021/11/16 08:49:31;;;;;;;36.67;14.75;;;;;;;10.96;96.29;101774.59;5014609;28;20045;-77
2021/11/16 08:52:01;;;;;;;27.92;15.10;;;;;;;10.99;96.44;101762.75;5013625;28;20149;-76
2021/11/16 08:54:31;;;;;;;23.25;13.55;;;;;;;11.04;95.81;101742.34;5014336;28;20038;-77
2021/11/16 08:56:56;;;;;;;;;;;;;;;11.24;95.70;101758.03;5011148;28;20018;-77
2021/11/16 08:59:22;;;;;;;34.95;15.50;;;;;;;11.16;93.58;101716.25;5013165;28;19925;-79
2021/11/16 09:01:58;;;;;;;48.05;17.10;;;;;;;11.16;92.53;101711.09;5013818;28;20449;-78
2021/11/16 09:04:32;;;;;;;30.80;13.60;;;;;;;11.42;92.13;101725.44;4995895;28;20081;-77
2021/11/16 09:06:59;;;;;;;47.55;16.85;;;;;;;10.99;91.02;101630.06;5013739;28;20039;-76
2021/11/16 09:09:26;;;;;;;30.63;14.35;;;;;;;11.68;92.52;101746.63;5013427;28;20057;-77
2021/11/16 09:12:05;;;;;;;26.55;13.13;;;;;;;11.51;92.01;101748.31;5013712;28;20052;-76
2021/11/16 09:14:32;;;;;;;46.45;18.88;;;;;;;11.33;92.50;101743.03;4979276;28;20092;-76
2021/11/16 09:17:09;;;;;;;52.17;16.63;;;;;;;11.42;91.99;101745.25;5012890;28;20372;-76
2021/11/16 09:19:34;;;;;;;27.42;14.27;;;;;;;10.77;91.37;101625.44;5013591;28;20061;-77
2021/11/16 09:22:01;;;;;;;43.03;15.35;;;;;;;11.38;91.62;101704.53;5013529;28;20030;-77
2021/11/16 09:24:35;;;;;;;24.83;10.35;;;;;;;11.63;90.51;101741.19;5012490;28;20391;-77
2021/11/16 09:29:31;;;;;;;19.80;10.50;;;;;;;11.74;89.66;101721.09;5013632;28;20030;-77
2021/11/16 09:32:00;;;;;;;21.80;10.23;;;;;;;11.92;88.05;101738.38;5005467;28;20044;-76
2021/11/16 09:34:29;;;;;;;15.80;8.73;;;;;;;11.78;87.44;101707.47;4999758;28;20037;-76
2021/11/16 09:36:59;;;;;;;22.30;10.23;;;;;;;12.08;87.98;101722.84;5005480;28;20026;-77
2021/11/16 09:39:29;;;;;;;15.70;9.55;;;;;;;12.19;87.02;101714.75;5012946;28;20038;-79
2021/11/16 09:41:59;;;;;;;;;;;;;;;12.30;85.86;101716.19;5013636;28;20034;-80
2021/11/16 09:44:42;;;;;;;16.00;8.25;;;;;;;11.42;84.96;101559.06;5013157;28;19909;-78
2021/11/16 09:47:20;;;;;;;18.67;8.70;;;;;;;12.24;85.24;101682.22;5013290;28;20045;-78
2021/11/16 09:49:59;;;;;;;17.07;8.13;;;;;;;12.01;83.99;101612.03;5012742;28;20029;-78
2021/11/16 09:52:59;;;;;;;26.48;11.00;;;;;;;12.37;85.10;101671.63;5011992;28;20578;-78
2021/11/16 09:55:37;;;;;;;19.50;8.82;;;;;;;12.70;83.49;101715.53;5012117;28;20088;-78
2021/11/16 09:58:08;;;;;;;22.77;10.32;;;;;;;12.79;82.90;101710.78;5005799;28;20022;-79
2021/11/16 10:00:41;;;;;;;18.27;9.10;;;;;;;12.68;82.33;101680.00;4991068;28;20100;-79
2021/11/16 10:03:13;;;;;;;15.80;7.35;;;;;;;12.78;81.09;101698.66;4993236;28;20022;-79
2021/11/16 10:05:45;;;;;;;24.95;9.82;;;;;;;12.39;81.01;101620.78;4993510;28;20026;-78
2021/11/16 10:08:11;;;;;;;32.65;11.35;;;;;;;12.75;81.21;101698.50;4993455;28;20045;-79
2021/11/16 10:10:40;;;;;;;27.13;10.40;;;;;;;12.58;81.51;101709.75;4993112;28;20097;-79
2021/11/16 10:13:09;;;;;;;22.23;10.85;;;;;;;11.77;82.54;101607.38;4992908;28;20085;-78
2021/11/16 10:15:41;;;;;;;20.45;8.68;;;;;;;11.82;82.40;101625.75;4991626;28;20488;-74
2021/11/16 10:18:09;;;;;;;14.57;7.88;;;;;;;12.22;82.10;101697.66;4993107;28;20026;-76
2021/11/16 10:20:38;;;;;;;16.13;7.90;;;;;;;12.15;82.63;101690.41;4992974;28;20116;-75
2021/11/16 10:23:07;;;;;;;34.72;11.95;;;;;;;12.08;83.21;101676.25;4993011;28;20030;-76
2021/11/16 10:25:37;;;;;;;24.05;9.68;;;;;;;12.21;82.93;101680.38;4991734;28;20720;-75
2021/11/16 10:28:15;;;;;;;28.95;10.32;;;;;;;12.13;83.58;101682.53;4992637;28;20030;-76
2021/11/16 10:30:41;;;;;;;48.63;15.23;;;;;;;11.63;84.54;101598.06;4992766;28;20030;-76
2021/11/16 10:33:10;;;;;;;38.13;12.73;;;;;;;12.18;85.09;101687.97;5000103;28;20032;-75
2021/11/16 10:35:59;;;;;;;24.02;9.23;;;;;;;12.14;83.49;101676.56;5003620;28;20034;-78
2021/11/16 10:38:37;;;;;;;24.75;11.65;;;;;;;11.85;83.56;101649.19;5008278;28;20033;-77
2021/11/16 10:41:08;;;;;;;19.25;8.48;;;;;;;11.48;83.51;101588.69;5000819;28;20569;-78
2021/11/16 10:43:38;;;;;;;17.38;8.07;;;;;;;11.96;84.43;101667.88;5002389;28;20075;-76
2021/11/16 10:46:06;;;;;;;25.52;10.70;;;;;;;11.94;84.42;101672.06;5010479;28;20037;-76
2021/11/16 10:48:32;;;;;;;28.95;11.45;;;;;;;11.90;85.36;101647.72;5011704;28;20038;-77
2021/11/16 10:50:57;;;;;;;27.42;9.02;;;;;;;11.88;83.18;101635.53;5011866;28;20017;-77
2021/11/16 10:53:28;;;;;;;29.40;10.25;;;;;;;12.07;83.38;101653.75;5011827;28;20506;-78
2021/11/16 10:55:57;;;;;;;24.17;8.70;;;;;;;12.13;82.91;101664.41;5010704;28;20471;-78
2021/11/16 10:58:48;;;;;;;44.05;11.02;;;;;;;11.98;82.36;101653.31;5011641;28;20381;-77
2021/11/16 11:01:19;;;;;;;20.83;8.32;;;;;;;12.05;83.01;101654.50;5004283;28;20077;-80
2021/11/16 11:03:48;;;;;;;21.98;9.07;;;;;;;11.76;82.74;101609.91;5005212;28;20116;-77
2021/11/16 11:06:18;;;;;;;29.35;9.80;;;;;;;12.03;83.79;101649.25;5005817;28;20469;-73
2021/11/16 11:08:48;;;;;;;16.13;8.05;;;;;;;12.06;82.49;101657.19;5001017;28;20423;-74
2021/11/16 11:11:25;;;;;;;30.27;10.82;;;;;;;11.97;82.71;101646.34;5001342;28;20064;-75
2021/11/16 11:14:00;;;;;;;52.15;12.82;;;;;;;11.90;83.07;101618.34;5002495;28;20080;-77
2021/11/16 11:16:27;;;;;;;40.15;12.35;;;;;;;11.95;81.48;101629.81;5005855;28;20022;-74
2021/11/16 11:18:55;;;;;;;35.65;10.82;;;;;;;11.96;82.24;101644.56;5003623;28;20384;-75
2021/11/16 11:21:48;;;;;;;34.55;11.40;;;;;;;11.34;84.24;101569.03;5005084;28;20544;-75
2021/11/16 11:24:19;;;;;;;22.67;10.50;;;;;;;11.73;85.05;101652.03;5007453;28;20045;-73
2021/11/16 11:26:54;;;;;;;23.13;11.25;;;;;;;10.98;85.53;101553.38;5040980;28;20438;-73
2021/11/16 11:29:25;;;;;;;18.30;10.82;;;;;;;11.47;85.87;101651.56;5008509;28;20032;-71
2021/11/16 11:32:23;;;;;;;26.63;12.30;;;;;;;11.43;87.65;101659.97;5009762;28;20034;-72
2021/11/16 11:34:51;;;;;;;23.80;13.57;;;;;;;11.37;87.58;101651.03;5007938;28;20041;-74
2021/11/16 11:37:18;;;;;;;22.70;12.82;;;;;;;11.26;87.00;101634.94;5010867;28;20518;-74
2021/11/16 11:40:02;;;;;;;16.48;10.30;;;;;;;11.24;86.92;101636.53;5009186;28;20160;-74
2021/11/16 11:42:31;;;;;;;19.25;11.55;;;;;;;11.12;87.32;101595.44;5002791;28;20029;-74
2021/11/16 11:45:08;;;;;;;19.77;11.80;;;;;;;11.14;87.31;101611.91;5006569;28;20034;-72
2021/11/16 11:47:37;;;;;;;18.17;12.68;;;;;;;10.68;88.23;101538.03;5008202;28;20069;-75
2021/11/16 11:50:20;;;;;;;14.40;9.45;;;;;;;10.67;87.76;101542.28;5010336;28;20029;-72
2021/11/16 11:52:47;;;;;;;19.33;10.77;;;;;;;11.11;87.35;101617.78;5010408;28;20541;-74